Time;durP1;ratioP1;P1;durP2;ratioP2;P2;SDS_P1;SDS_P2;PMS_P1;PMS_P2;Temp;Humidity;BMP_temperature;BMP_pressure;BME280_temperature;BME280_humidity;BME280_pressure;Samples;Min_cycle;Max_cycle;Signal;HPM_P1;HPM_P2
2024/02/14 00:01:13;;;;;;;3.77;1.17;;;30.00;57.20;;;;;;5046979;28;20186;-72
2024/02/14 00:03:41;;;;;;;2.67;0.80;;;29.90;56.60;;;;;;5049513;28;20190;-74
2024/02/14 00:06:08;;;;;;;3.13;1.10;;;30.00;57.40;;;;;;5049625;28;20203;-75
2024/02/14 00:08:35;;;;;;;3.53;1.13;;;29.90;57.30;;;;;;5045445;28;20191;-72
2024/02/14 00:11:03;;;;;;;12.07;1.47;;;29.90;56.30;;;;;;5047652;28;20294;-72
2024/02/14 00:13:32;;;;;;;4.13;1.23;;;30.10;56.70;;;;;;5049894;28;20681;-73
2024/02/14 00:15:59;;;;;;;1.67;0.70;;;29.90;56.00;;;;;;5049311;28;20303;-75
2024/02/14 00:18:27;;;;;;;6.80;1.30;;;29.70;56.30;;;;;;5049029;28;20176;-71
2024/02/14 00:20:55;;;;;;;4.80;0.97;;;29.60;56.60;;;;;;5048863;28;20678;-74
2024/02/14 00:23:22;;;;;;;3.03;0.83;;;29.50;55.90;;;;;;5053258;28;20670;-71
2024/02/14 00:25:50;;;;;;;7.20;1.30;;;29.50;54.60;;;;;;5052825;28;20195;-70
2024/02/14 00:28:17;;;;;;;1.40;0.70;;;29.80;54.00;;;;;;5053959;28;20179;-73
2024/02/14 00:30:45;;;;;;;2.87;1.00;;;30.30;52.70;;;;;;5051843;28;21112;-70
2024/02/14 00:33:12;;;;;;;3.93;0.80;;;30.80;51.90;;;;;;5053288;28;20199;-71
2024/02/14 00:35:40;;;;;;;2.03;0.77;;;31.10;51.40;;;;;;5047925;28;20634;-70
2024/02/14 00:38:07;;;;;;;2.60;0.80;;;31.40;50.90;;;;;;5051824;28;20195;-70
2024/02/14 00:40:34;;;;;;;5.03;1.05;;;31.70;49.70;;;;;;5050264;28;20196;-73
2024/02/14 00:43:02;;;;;;;2.33;0.90;;;31.50;49.10;;;;;;5052885;28;20180;-72
2024/02/14 00:45:29;;;;;;;4.28;1.00;;;31.40;49.30;;;;;;5052038;28;20563;-72
2024/02/14 00:47:56;;;;;;;5.43;1.02;;;31.10;50.70;;;;;;5053015;28;20184;-72
2024/02/14 00:50:25;;;;;;;8.27;1.13;;;31.20;50.60;;;;;;5053537;28;20188;-71
2024/02/14 00:52:52;;;;;;;1.45;0.70;;;31.20;50.40;;;;;;5051577;28;20184;-69
2024/02/14 00:55:19;;;;;;;3.80;1.02;;;31.20;50.50;;;;;;5050749;28;20215;-69
2024/02/14 00:57:47;;;;;;;3.17;1.00;;;31.20;50.50;;;;;;5046133;28;20258;-70
2024/02/14 01:00:17;;;;;;;4.17;0.90;;;31.10;51.00;;;;;;5054195;28;20218;-76
2024/02/14 01:02:44;;;;;;;3.03;0.85;;;31.00;51.20;;;;;;5052570;28;20179;-75
2024/02/14 01:05:11;;;;;;;3.05;0.93;;;30.80;51.10;;;;;;5054529;28;20192;-75
2024/02/14 01:07:39;;;;;;;2.75;0.93;;;30.80;51.70;;;;;;5053384;28;20214;-72
2024/02/14 01:10:07;;;;;;;3.50;1.00;;;30.80;51.00;;;;;;5052212;28;20219;-73
2024/02/14 01:12:34;;;;;;;4.38;0.80;;;31.10;51.30;;;;;;5052906;28;20191;-75
2024/02/14 01:15:02;;;;;;;1.83;0.88;;;31.30;50.80;;;;;;5046221;28;20219;-73
2024/02/14 01:17:30;;;;;;;3.40;0.80;;;31.40;50.50;;;;;;5053033;28;20677;-74
2024/02/14 01:19:58;;;;;;;2.97;1.38;;;31.80;50.00;;;;;;5048657;28;20262;-73
2024/02/14 01:22:25;;;;;;;10.52;2.20;;;32.00;52.60;;;;;;5052270;28;20196;-73
2024/02/14 01:24:54;;;;;;;9.40;1.83;;;31.70;53.40;;;;;;5049422;28;20263;-73
2024/02/14 01:27:22;;;;;;;5.07;1.67;;;31.20;54.80;;;;;;5049160;28;20218;-71
2024/02/14 01:29:50;;;;;;;7.18;2.22;;;31.00;55.40;;;;;;5049328;28;20298;-71
2024/02/14 01:32:17;;;;;;;5.05;1.83;;;31.00;55.00;;;;;;5051096;28;20180;-71
2024/02/14 01:34:44;;;;;;;4.55;2.00;;;31.10;55.50;;;;;;5052444;28;20281;-71
2024/02/14 01:37:12;;;;;;;4.50;1.73;;;31.30;55.70;;;;;;5053506;28;20176;-73
2024/02/14 01:39:39;;;;;;;6.50;1.45;;;31.50;55.30;;;;;;5053111;28;20557;-70
2024/02/14 01:42:07;;;;;;;3.83;1.63;;;31.90;53.20;;;;;;5053750;28;20219;-73
2024/02/14 01:44:36;;;;;;;4.50;1.33;;;31.80;53.10;;;;;;5051145;28;20237;-69
2024/02/14 01:47:03;;;;;;;9.40;1.52;;;31.70;52.90;;;;;;5048737;28;20267;-71
2024/02/14 01:49:31;;;;;;;5.20;1.23;;;31.50;53.30;;;;;;5053762;28;20188;-72
2024/02/14 01:52:03;;;;;;;8.38;1.30;;;31.80;53.10;;;;;;5053348;28;20199;-70
2024/02/14 01:54:35;;;;;;;2.80;1.10;;;31.70;53.30;;;;;;5052515;28;20260;-74
2024/02/14 01:57:03;;;;;;;4.75;1.10;;;31.70;53.40;;;;;;5052935;28;20192;-77
2024/02/14 01:59:30;;;;;;;1.92;0.75;;;31.70;52.00;;;;;;5051639;28;20278;-72
2024/02/14 02:01:58;;;;;;;4.45;1.05;;;31.70;50.60;;;;;;5053277;28;20233;-71
2024/02/14 02:04:25;;;;;;;13.60;2.30;;;31.50;50.90;;;;;;5051822;28;20188;-71
2024/02/14 02:06:56;;;;;;;9.90;2.45;;;31.30;53.20;;;;;;5053482;28;20634;-72
2024/02/14 02:09:24;;;;;;;8.75;1.90;;;31.00;54.40;;;;;;5052862;28;20179;-72
2024/02/14 02:12:01;;;;;;;15.10;2.95;;;31.20;54.60;;;;;;5052823;28;20188;-72
2024/02/14 02:14:29;;;;;;;10.77;2.80;;;31.00;55.60;;;;;;5052734;28;20202;-72
2024/02/14 02:16:57;;;;;;;12.90;3.15;;;31.00;55.70;;;;;;5047580;28;20210;-73
2024/02/14 02:19:24;;;;;;;15.18;3.22;;;30.80;56.20;;;;;;5052999;28;20669;-71
2024/02/14 02:21:52;;;;;;;14.98;3.15;;;30.30;57.40;;;;;;5052695;28;21100;-71
2024/02/14 02:24:19;;;;;;;15.85;3.58;;;30.20;58.50;;;;;;5052540;28;20191;-69
2024/02/14 02:26:46;;;;;;;13.77;3.03;;;30.30;58.40;;;;;;5048046;28;20184;-71
2024/02/14 02:29:15;;;;;;;17.07;3.60;;;30.50;58.30;;;;;;5050466;28;20195;-72
2024/02/14 02:31:42;;;;;;;13.27;3.97;;;30.70;58.10;;;;;;5041767;28;20674;-71
2024/02/14 02:34:10;;;;;;;17.10;4.13;;;30.40;58.80;;;;;;5049732;28;20557;-70
2024/02/14 02:36:39;;;;;;;22.15;4.88;;;30.90;58.00;;;;;;5049196;28;20227;-71
2024/02/14 02:39:06;;;;;;;24.30;5.28;;;30.70;58.40;;;;;;5050472;28;20184;-75
2024/02/14 02:41:36;;;;;;;21.00;4.47;;;30.20;60.00;;;;;;5052286;28;20187;-72
2024/02/14 02:44:06;;;;;;;27.10;5.80;;;30.00;61.00;;;;;;5050250;28;20182;-72
2024/02/14 02:46:34;;;;;;;24.30;5.35;;;29.90;62.20;;;;;;5047994;28;20168;-72
2024/02/14 02:49:01;;;;;;;32.27;6.30;;;30.10;62.60;;;;;;5051186;28;20180;-74
2024/02/14 02:51:29;;;;;;;33.20;6.60;;;30.50;61.80;;;;;;5050486;28;20252;-71
2024/02/14 02:53:57;;;;;;;32.78;6.53;;;30.40;62.00;;;;;;5051355;28;20279;-71
2024/02/14 02:56:27;;;;;;;31.53;6.50;;;30.10;63.50;;;;;;5048293;28;20636;-71
2024/02/14 02:58:56;;;;;;;31.80;6.53;;;30.10;62.90;;;;;;5051138;28;20232;-73
2024/02/14 03:01:24;;;;;;;34.67;7.15;;;30.30;62.40;;;;;;5050534;28;20666;-72
2024/02/14 03:03:52;;;;;;;37.97;7.90;;;29.60;64.90;;;;;;5050876;28;20184;-71
2024/02/14 03:06:20;;;;;;;39.22;7.13;;;29.40;65.50;;;;;;5048736;28;20195;-70
2024/02/14 03:08:48;;;;;;;32.17;7.03;;;29.90;64.60;;;;;;5049131;28;20180;-71
2024/02/14 03:11:17;;;;;;;34.92;7.40;;;29.90;63.70;;;;;;5050401;28;20628;-72
2024/02/14 03:13:45;;;;;;;36.13;7.07;;;29.90;63.90;;;;;;5050183;28;20685;-71
2024/02/14 03:16:13;;;;;;;33.97;7.10;;;29.30;65.00;;;;;;5050275;28;20268;-72
2024/02/14 03:18:41;;;;;;;32.33;7.43;;;29.30;65.50;;;;;;5050283;28;20650;-71
2024/02/14 03:21:08;;;;;;;33.42;7.05;;;29.30;65.10;;;;;;5050235;28;20184;-71
2024/02/14 03:23:35;;;;;;;28.57;6.27;;;29.30;64.50;;;;;;5044376;28;20177;-74
2024/02/14 03:26:07;;;;;;;31.53;6.93;;;29.10;64.60;;;;;;5043432;28;20180;-75
2024/02/14 03:28:35;;;;;;;29.30;6.17;;;29.10;64.60;;;;;;5048752;28;20187;-71
2024/02/14 03:31:02;;;;;;;40.27;6.43;;;29.30;63.60;;;;;;5048820;28;20180;-71
2024/02/14 03:33:30;;;;;;;25.63;5.95;;;29.50;62.10;;;;;;5048978;28;20187;-74
2024/02/14 03:35:57;;;;;;;27.40;5.50;;;29.40;62.80;;;;;;5047828;28;20231;-72
2024/02/14 03:38:31;;;;;;;28.45;6.60;;;29.70;62.10;;;;;;5050757;28;20180;-73
2024/02/14 03:40:58;;;;;;;28.83;6.60;;;29.40;62.10;;;;;;5046719;28;20228;-72
2024/02/14 03:43:26;;;;;;;30.35;6.82;;;29.50;62.20;;;;;;5047469;28;20194;-73
2024/02/14 03:45:54;;;;;;;39.08;6.50;;;29.70;61.40;;;;;;5046475;28;20270;-74
2024/02/14 03:48:21;;;;;;;28.55;5.82;;;29.40;61.90;;;;;;5050277;28;20195;-72
2024/02/14 03:50:49;;;;;;;32.20;7.03;;;29.70;61.10;;;;;;5049994;28;20211;-71
2024/02/14 03:53:17;;;;;;;28.57;5.97;;;29.50;62.40;;;;;;5048232;28;20214;-71
2024/02/14 03:55:44;;;;;;;26.87;5.97;;;29.40;61.60;;;;;;5049819;28;20233;-74
2024/02/14 03:58:13;;;;;;;26.53;6.37;;;28.80;63.20;;;;;;5052714;28;20630;-71
2024/02/14 04:00:41;;;;;;;32.77;6.47;;;28.40;64.20;;;;;;5052425;28;20188;-71
2024/02/14 04:03:08;;;;;;;30.67;6.53;;;28.40;64.40;;;;;;5051831;28;20583;-72
2024/02/14 04:05:36;;;;;;;32.13;6.73;;;28.70;63.20;;;;;;5054206;28;20302;-72
2024/02/14 04:08:03;;;;;;;24.03;6.43;;;28.80;62.90;;;;;;5052612;28;20179;-71
2024/02/14 04:10:30;;;;;;;31.17;6.33;;;29.20;62.30;;;;;;5053932;28;20190;-73
2024/02/14 04:12:58;;;;;;;34.72;6.57;;;29.00;61.90;;;;;;5054824;28;20176;-73
2024/02/14 04:15:25;;;;;;;28.53;5.67;;;29.60;60.90;;;;;;5053658;28;20302;-73
2024/02/14 04:17:53;;;;;;;25.83;5.87;;;29.80;60.50;;;;;;5053517;28;20537;-72
2024/02/14 04:20:20;;;;;;;28.38;6.13;;;29.70;59.50;;;;;;5054629;28;20184;-71
2024/02/14 04:22:47;;;;;;;30.50;6.10;;;28.90;60.90;;;;;;5050214;28;20176;-73
2024/02/14 04:25:15;;;;;;;28.57;5.87;;;28.30;63.30;;;;;;5054699;28;20192;-77
2024/02/14 04:27:42;;;;;;;29.10;6.40;;;28.20;63.50;;;;;;5053312;28;20210;-73
2024/02/14 04:30:10;;;;;;;22.23;5.90;;;27.80;65.00;;;;;;5054581;28;20211;-71
2024/02/14 04:32:37;;;;;;;25.20;6.10;;;27.80;64.90;;;;;;5053436;28;20631;-73
2024/02/14 04:35:05;;;;;;;37.67;6.60;;;27.80;65.60;;;;;;5054061;28;20610;-74
2024/02/14 04:37:33;;;;;;;34.77;6.63;;;27.80;65.40;;;;;;5053739;28;20722;-72
2024/02/14 04:40:00;;;;;;;29.43;6.00;;;27.70;65.90;;;;;;5052308;28;20188;-71
2024/02/14 04:42:27;;;;;;;30.53;6.63;;;28.20;64.30;;;;;;5053796;28;20382;-72
2024/02/14 04:44:54;;;;;;;32.13;5.90;;;28.40;64.00;;;;;;5051546;28;20176;-74
2024/02/14 04:47:22;;;;;;;30.83;6.73;;;28.40;63.40;;;;;;5053971;28;20218;-73
2024/02/14 04:49:51;;;;;;;37.83;7.03;;;28.40;63.90;;;;;;5051546;28;20192;-74
2024/02/14 04:52:18;;;;;;;32.43;7.17;;;28.70;63.40;;;;;;5052961;28;20188;-75
2024/02/14 04:54:46;;;;;;;30.13;6.53;;;28.80;62.80;;;;;;5052884;28;20265;-73
2024/02/14 04:57:14;;;;;;;35.93;7.17;;;28.80;63.10;;;;;;5052919;28;20222;-73
2024/02/14 04:59:41;;;;;;;26.20;5.90;;;28.50;63.90;;;;;;5050869;28;20321;-73
2024/02/14 05:02:09;;;;;;;36.83;6.87;;;27.90;64.70;;;;;;5053149;28;20172;-74
2024/02/14 05:04:39;;;;;;;32.80;6.83;;;27.80;65.20;;;;;;5050024;28;20195;-74
2024/02/14 05:07:06;;;;;;;35.63;6.47;;;27.70;66.00;;;;;;5047941;28;20185;-73
2024/02/14 05:09:33;;;;;;;31.67;6.53;;;27.40;66.30;;;;;;5052052;28;20199;-72
2024/02/14 05:12:01;;;;;;;25.53;5.63;;;27.10;67.60;;;;;;5051839;28;20180;-73
2024/02/14 05:14:31;;;;;;;32.13;6.37;;;26.80;68.10;;;;;;5050314;28;20188;-73
2024/02/14 05:17:01;;;;;;;36.57;7.10;;;26.70;68.80;;;;;;5051248;28;20191;-73
2024/02/14 05:19:29;;;;;;;37.73;6.30;;;26.70;68.70;;;;;;5052399;28;20184;-73
2024/02/14 05:21:57;;;;;;;35.47;5.87;;;26.80;68.60;;;;;;5046087;28;20188;-73
2024/02/14 05:24:27;;;;;;;32.43;5.87;;;26.60;68.00;;;;;;5046589;28;20658;-72
2024/02/14 05:26:54;;;;;;;30.30;5.70;;;26.30;68.70;;;;;;5050266;28;20195;-71
2024/02/14 05:29:22;;;;;;;36.07;6.27;;;26.10;68.90;;;;;;5051256;28;20180;-73
2024/02/14 05:31:52;;;;;;;32.70;6.20;;;26.20;68.90;;;;;;5050598;28;20188;-73
2024/02/14 05:34:19;;;;;;;29.27;6.40;;;26.30;68.40;;;;;;5051080;28;20655;-72
2024/02/14 05:36:46;;;;;;;32.30;5.33;;;26.30;69.10;;;;;;5051753;28;20194;-71
2024/02/14 05:39:15;;;;;;;32.33;5.87;;;25.90;70.20;;;;;;5050702;28;20187;-72
2024/02/14 05:41:43;;;;;;;34.63;6.07;;;25.60;71.00;;;;;;5046394;28;20216;-71
2024/02/14 05:44:10;;;;;;;29.13;5.77;;;25.60;71.20;;;;;;5044237;28;20230;-71
2024/02/14 05:46:37;;;;;;;36.43;6.17;;;25.40;72.00;;;;;;5052821;28;20299;-73
2024/02/14 05:49:06;;;;;;;34.50;6.40;;;25.30;72.40;;;;;;5050597;28;20191;-74
2024/02/14 05:51:33;;;;;;;27.67;6.13;;;25.40;71.90;;;;;;5053261;28;20206;-72
2024/02/14 05:54:00;;;;;;;31.43;5.87;;;25.00;73.00;;;;;;5051422;28;20184;-74
2024/02/14 05:56:28;;;;;;;31.73;6.20;;;24.80;73.90;;;;;;5049558;28;20634;-72
2024/02/14 05:58:55;;;;;;;31.23;5.77;;;24.70;74.80;;;;;;5050207;28;20180;-72
2024/02/14 06:01:22;;;;;;;31.93;6.43;;;24.70;75.00;;;;;;5051995;28;20184;-71
2024/02/14 06:03:49;;;;;;;28.53;5.53;;;24.50;76.10;;;;;;5044696;28;20185;-72
2024/02/14 06:06:17;;;;;;;30.20;5.97;;;24.50;76.50;;;;;;5052467;28;20330;-72
2024/02/14 06:08:44;;;;;;;26.57;5.53;;;24.40;76.70;;;;;;5051517;28;20188;-72
2024/02/14 06:11:14;;;;;;;38.67;6.97;;;24.40;77.40;;;;;;5051048;28;20180;-71
2024/02/14 06:13:41;;;;;;;29.63;6.10;;;24.40;77.40;;;;;;5049216;28;20194;-72
2024/02/14 06:16:08;;;;;;;32.93;6.30;;;24.50;77.80;;;;;;5051391;28;20679;-72
2024/02/14 06:18:36;;;;;;;26.53;5.50;;;24.40;77.80;;;;;;5051163;28;20187;-72
2024/02/14 06:21:03;;;;;;;32.10;5.00;;;24.30;77.20;;;;;;5045465;28;20180;-72
2024/02/14 06:23:30;;;;;;;31.40;4.93;;;24.30;77.10;;;;;;5051991;28;20194;-73
2024/02/14 06:25:59;;;;;;;32.20;5.63;;;24.10;76.90;;;;;;5049587;28;20259;-71
2024/02/14 06:28:27;;;;;;;34.73;5.67;;;24.00;77.20;;;;;;5048273;28;20183;-72
2024/02/14 06:30:54;;;;;;;30.53;5.07;;;23.90;76.60;;;;;;5052866;28;20226;-71
2024/02/14 06:33:22;;;;;;;31.60;5.17;;;23.80;77.40;;;;;;5052645;28;20212;-71
2024/02/14 06:35:50;;;;;;;29.27;5.20;;;23.90;77.40;;;;;;5052092;28;20227;-75
2024/02/14 06:38:17;;;;;;;26.40;5.00;;;23.90;77.60;;;;;;5052968;28;20655;-73
2024/02/14 06:40:44;;;;;;;23.53;5.43;;;23.70;78.60;;;;;;5052705;28;20537;-70
2024/02/14 06:43:12;;;;;;;28.60;5.77;;;23.40;79.70;;;;;;5050354;28;20219;-70
2024/02/14 06:45:39;;;;;;;23.03;4.80;;;23.30;79.80;;;;;;5052484;28;20539;-75
2024/02/14 06:48:08;;;;;;;22.27;4.90;;;23.40;79.90;;;;;;5052535;28;20203;-71
2024/02/14 06:50:36;;;;;;;25.50;4.90;;;23.50;80.10;;;;;;5052673;28;20635;-72
2024/02/14 06:53:03;;;;;;;24.23;4.60;;;23.50;80.10;;;;;;5050658;28;20237;-74
2024/02/14 06:55:31;;;;;;;25.87;4.83;;;23.40;80.40;;;;;;5053641;28;20238;-71
2024/02/14 06:58:04;;;;;;;27.87;5.17;;;23.20;80.70;;;;;;5056616;28;20180;-70
2024/02/14 07:00:32;;;;;;;26.30;5.43;;;23.00;81.90;;;;;;5052625;28;20626;-69
2024/02/14 07:02:59;;;;;;;29.37;5.10;;;23.00;82.60;;;;;;5050714;28;20172;-70
2024/02/14 07:05:29;;;;;;;22.37;4.93;;;23.10;82.40;;;;;;5052154;28;20191;-70
2024/02/14 07:07:56;;;;;;;22.43;5.20;;;23.10;81.70;;;;;;5047656;28;20207;-69
2024/02/14 07:10:24;;;;;;;26.73;6.63;;;23.40;83.40;;;;;;5051603;28;20203;-70
2024/02/14 07:12:51;;;;;;;23.30;6.17;;;23.40;84.40;;;;;;5052376;28;20638;-71
2024/02/14 07:15:19;;;;;;;16.83;4.77;;;23.30;85.20;;;;;;5051498;28;20589;-70
2024/02/14 07:17:47;;;;;;;20.97;5.80;;;22.70;85.60;;;;;;5051999;28;20673;-71
2024/02/14 07:20:15;;;;;;;21.70;6.43;;;22.30;86.60;;;;;;5051602;28;20672;-73
2024/02/14 07:22:45;;;;;;;18.03;5.67;;;22.30;88.00;;;;;;5049084;28;20188;-70
2024/02/14 07:25:13;;;;;;;20.03;6.40;;;21.90;88.50;;;;;;5052020;28;20638;-71
2024/02/14 07:27:41;;;;;;;17.90;6.60;;;21.80;89.20;;;;;;5042297;28;20657;-70
2024/02/14 07:30:08;;;;;;;21.87;6.63;;;21.80;89.60;;;;;;5051988;28;20180;-72
2024/02/14 07:32:38;;;;;;;20.33;6.70;;;21.70;89.80;;;;;;5051892;28;20199;-70
2024/02/14 07:35:06;;;;;;;16.60;7.43;;;21.60;90.40;;;;;;5051196;28;20227;-70
2024/02/14 07:37:33;;;;;;;19.37;6.90;;;21.50;90.20;;;;;;5052437;28;20187;-70
2024/02/14 07:40:01;;;;;;;18.87;6.57;;;21.60;91.10;;;;;;5051949;28;20183;-70
2024/02/14 07:42:28;;;;;;;16.23;6.63;;;21.50;91.00;;;;;;5052539;28;20187;-70
2024/02/14 07:44:56;;;;;;;17.67;7.30;;;21.50;90.90;;;;;;5065921;28;20532;-71
2024/02/14 07:47:23;;;;;;;19.17;7.40;;;21.30;90.90;;;;;;5052905;28;20654;-70
2024/02/14 07:49:53;;;;;;;24.17;8.10;;;21.30;91.10;;;;;;5051678;28;20176;-71
2024/02/14 07:52:21;;;;;;;16.27;7.33;;;21.20;91.10;;;;;;5051092;28;20187;-70
2024/02/14 07:54:51;;;;;;;18.40;8.20;;;21.10;91.20;;;;;;5050619;28;20269;-70
2024/02/14 07:57:19;;;;;;;17.93;8.67;;;21.10;91.30;;;;;;5052225;28;20179;-71
2024/02/14 07:59:46;;;;;;;15.60;8.63;;;21.00;91.40;;;;;;5051815;28;20179;-72
2024/02/14 08:02:14;;;;;;;16.23;9.63;;;21.10;91.50;;;;;;5046041;28;20655;-71
2024/02/14 08:04:41;;;;;;;18.50;9.10;;;21.20;91.50;;;;;;5048034;28;20182;-70
2024/02/14 08:07:09;;;;;;;18.47;9.53;;;21.10;91.20;;;;;;5050280;28;20650;-70
2024/02/14 08:09:40;;;;;;;16.40;8.87;;;21.20;91.60;;;;;;5051722;28;20194;-70
2024/02/14 08:12:07;;;;;;;18.20;9.10;;;21.20;91.40;;;;;;5051457;28;20241;-70
2024/02/14 08:14:35;;;;;;;16.83;9.63;;;21.10;91.30;;;;;;5051259;28;20195;-70
2024/02/14 08:17:02;;;;;;;20.67;11.27;;;21.10;91.50;;;;;;5051607;28;20184;-69
2024/02/14 08:19:30;;;;;;;19.80;9.93;;;21.20;91.50;;;;;;5051094;28;20342;-71
2024/02/14 08:21:59;;;;;;;18.17;10.57;;;21.10;91.40;;;;;;5049598;28;20604;-70
2024/02/14 08:24:27;;;;;;;21.67;11.53;;;21.10;91.40;;;;;;5051241;28;20703;-70
2024/02/14 08:26:55;;;;;;;21.50;12.13;;;21.00;91.30;;;;;;5043727;28;20173;-70
2024/02/14 08:29:22;;;;;;;14.50;10.33;;;21.00;91.30;;;;;;5039655;28;20596;-71
2024/02/14 08:31:50;;;;;;;14.57;11.20;;;20.90;91.30;;;;;;5047720;28;20334;-70
2024/02/14 08:34:17;;;;;;;14.67;10.90;;;20.90;91.60;;;;;;5041472;28;20211;-74
2024/02/14 08:36:45;;;;;;;16.03;11.77;;;20.80;91.40;;;;;;5049820;28;20219;-70
2024/02/14 08:39:12;;;;;;;18.33;11.57;;;20.70;91.60;;;;;;5050518;28;20654;-70
2024/02/14 08:41:41;;;;;;;20.93;12.97;;;20.70;91.90;;;;;;5050032;28;20188;-70
2024/02/14 08:44:09;;;;;;;16.17;11.63;;;20.70;91.90;;;;;;5051705;28;20184;-70
2024/02/14 08:46:36;;;;;;;18.77;11.97;;;20.60;91.90;;;;;;5055526;28;20692;-70
2024/02/14 08:49:08;;;;;;;28.53;14.50;;;20.70;92.00;;;;;;5054171;28;20271;-72
2024/02/14 08:51:38;;;;;;;16.50;14.87;;;20.60;91.90;;;;;;5050869;28;20191;-70
2024/02/14 08:54:06;;;;;;;21.47;15.07;;;20.50;91.80;;;;;;5053801;28;20188;-71
2024/02/14 08:56:34;;;;;;;16.97;13.63;;;20.50;91.80;;;;;;5054536;28;20265;-69
2024/02/14 08:59:06;;;;;;;21.30;13.73;;;20.60;92.10;;;;;;5054453;28;20187;-71
2024/02/14 09:01:36;;;;;;;21.30;15.53;;;20.70;92.20;;;;;;5046882;28;20267;-70
2024/02/14 09:04:06;;;;;;;19.20;15.13;;;20.70;92.10;;;;;;5050250;28;20189;-70
2024/02/14 09:06:33;;;;;;;19.30;15.00;;;20.60;91.90;;;;;;5053503;28;20192;-70
2024/02/14 09:09:00;;;;;;;20.17;16.13;;;20.70;92.10;;;;;;5053817;28;20191;-70
2024/02/14 09:11:28;;;;;;;22.80;16.27;;;20.70;92.20;;;;;;5053869;28;20188;-70
2024/02/14 09:14:02;;;;;;;23.17;17.30;;;20.60;92.00;;;;;;5053977;28;20222;-69
2024/02/14 09:16:29;;;;;;;20.93;14.57;;;20.60;92.10;;;;;;5053266;28;20583;-71
2024/02/14 09:18:56;;;;;;;23.87;19.27;;;20.70;92.30;;;;;;5052754;28;20177;-70
2024/02/14 09:21:23;;;;;;;19.03;17.23;;;20.50;92.00;;;;;;5053194;28;20575;-69
2024/02/14 09:23:51;;;;;;;22.67;19.20;;;20.50;92.10;;;;;;5053733;28;20180;-70
2024/02/14 09:26:19;;;;;;;19.23;15.57;;;20.60;92.40;;;;;;5054286;28;20184;-70
2024/02/14 09:28:46;;;;;;;19.30;17.50;;;20.60;92.10;;;;;;5053765;28;20196;-70
2024/02/14 09:31:17;;;;;;;21.40;16.87;;;20.60;92.20;;;;;;5054563;28;20234;-70
2024/02/14 09:33:47;;;;;;;21.30;19.23;;;20.60;92.10;;;;;;5053142;28;20187;-70
2024/02/14 09:36:15;;;;;;;21.20;19.10;;;20.60;92.20;;;;;;5052206;28;20243;-70
2024/02/14 09:38:43;;;;;;;21.23;19.30;;;20.50;92.10;;;;;;5051883;28;20177;-70
2024/02/14 09:41:36;;;;;;;20.73;19.00;;;20.50;92.30;;;;;;5054253;28;20242;-69
2024/02/14 09:44:04;;;;;;;23.10;21.27;;;20.40;92.30;;;;;;5050935;28;20638;-71
2024/02/14 09:46:32;;;;;;;23.30;21.60;;;20.30;92.40;;;;;;5049892;28;20188;-70
2024/02/14 09:49:00;;;;;;;21.20;19.47;;;20.30;92.60;;;;;;5054013;28;20267;-69
2024/02/14 09:51:29;;;;;;;20.97;19.00;;;20.30;92.60;;;;;;5053381;28;20180;-70
2024/02/14 09:53:57;;;;;;;24.67;22.50;;;20.30;92.80;;;;;;5052946;28;20180;-70
2024/02/14 09:56:26;;;;;;;23.43;21.60;;;20.30;92.80;;;;;;5051466;28;20216;-69
2024/02/14 09:59:00;;;;;;;24.60;22.60;;;20.30;92.80;;;;;;5051693;28;20241;-70
2024/02/14 10:01:28;;;;;;;20.27;18.80;;;20.30;92.80;;;;;;5053293;28;20723;-69
2024/02/14 10:03:55;;;;;;;23.87;21.87;;;20.30;92.80;;;;;;5051844;28;20183;-69
2024/02/14 10:06:25;;;;;;;23.73;21.77;;;20.20;92.70;;;;;;5053126;28;20681;-71
2024/02/14 10:08:54;;;;;;;26.00;23.83;;;20.20;92.60;;;;;;5052606;28;20179;-70
2024/02/14 10:11:23;;;;;;;23.80;21.60;;;20.20;92.70;;;;;;5050244;28;20212;-70
2024/02/14 10:13:52;;;;;;;24.07;22.03;;;20.20;92.80;;;;;;5048656;28;20558;-70
2024/02/14 10:16:19;;;;;;;21.47;19.63;;;20.20;92.70;;;;;;5052806;28;20708;-70
2024/02/14 10:18:47;;;;;;;25.47;23.30;;;20.30;92.70;;;;;;5053116;28;20187;-71
2024/02/14 10:21:19;;;;;;;23.40;21.47;;;20.30;92.60;;;;;;5051145;28;20202;-71
2024/02/14 10:23:46;;;;;;;26.93;24.50;;;20.30;92.40;;;;;;5052687;28;20570;-70
2024/02/14 10:26:15;;;;;;;26.97;24.33;;;20.30;92.60;;;;;;5052418;28;20191;-69
2024/02/14 10:28:46;;;;;;;26.97;24.57;;;20.20;92.50;;;;;;5052113;28;20238;-69
2024/02/14 10:31:13;;;;;;;25.53;23.03;;;20.30;92.60;;;;;;5052762;28;20191;-70
2024/02/14 10:33:41;;;;;;;29.07;26.67;;;20.30;92.50;;;;;;5051763;28;20305;-70
2024/02/14 10:36:16;;;;;;;29.97;24.77;;;20.20;92.40;;;;;;5051948;28;20314;-70
2024/02/14 10:38:48;;;;;;;27.77;25.23;;;20.30;92.50;;;;;;5050140;28;21534;-71
2024/02/14 10:41:16;;;;;;;31.00;25.63;;;20.30;92.60;;;;;;5052696;28;20704;-69
2024/02/14 10:43:47;;;;;;;26.33;23.57;;;20.30;92.50;;;;;;5047747;28;20186;-71
2024/02/14 10:46:25;;;;;;;28.43;25.93;;;20.30;92.60;;;;;;5051591;28;20196;-72
2024/02/14 10:49:04;;;;;;;29.37;26.83;;;20.30;92.60;;;;;;5051581;28;20263;-71
2024/02/14 10:51:35;;;;;;;31.13;27.87;;;20.30;92.30;;;;;;5051545;28;20180;-70
2024/02/14 10:54:11;;;;;;;31.50;28.33;;;20.40;92.60;;;;;;5052477;28;20215;-71
2024/02/14 10:56:45;;;;;;;33.03;28.43;;;20.30;92.60;;;;;;5050481;28;20354;-71
2024/02/14 10:59:18;;;;;;;31.60;28.40;;;20.30;92.50;;;;;;5052529;28;20214;-72
2024/02/14 11:01:46;;;;;;;28.73;25.97;;;20.30;92.50;;;;;;5052710;28;20184;-70
2024/02/14 11:04:14;;;;;;;27.47;25.00;;;20.30;92.40;;;;;;5052193;28;20180;-73
2024/02/14 11:06:56;;;;;;;30.47;27.53;;;20.30;92.50;;;;;;5052085;28;20180;-70
2024/02/14 11:09:31;;;;;;;28.40;25.57;;;20.00;92.30;;;;;;5048102;28;20194;-71
2024/02/14 11:12:02;;;;;;;28.63;26.30;;;19.90;92.20;;;;;;5051682;28;20654;-71
2024/02/14 11:14:38;;;;;;;26.40;24.07;;;19.90;92.30;;;;;;5052326;28;20222;-70
2024/02/14 11:17:18;;;;;;;26.03;23.80;;;19.90;92.30;;;;;;5052650;28;20203;-70
2024/02/14 11:19:45;;;;;;;28.20;25.23;;;20.00;92.30;;;;;;5052303;28;20197;-70
2024/02/14 11:22:18;;;;;;;27.33;23.57;;;20.00;92.40;;;;;;5052514;28;20175;-71
2024/02/14 11:24:49;;;;;;;28.63;25.93;;;20.00;92.30;;;;;;5052049;28;20213;-70
2024/02/14 11:27:22;;;;;;;26.60;24.00;;;20.10;92.10;;;;;;5051377;28;20192;-70
2024/02/14 11:29:53;;;;;;;29.63;25.03;;;20.10;92.10;;;;;;5049280;28;20184;-70
2024/02/14 11:32:24;;;;;;;27.67;25.03;;;20.20;92.00;;;;;;5051816;28;20188;-71
2024/02/14 11:34:57;;;;;;;34.10;25.57;;;20.10;92.00;;;;;;5049504;28;20716;-69
2024/02/14 11:37:34;;;;;;;30.13;23.10;;;20.10;91.70;;;;;;5050529;28;20524;-70
2024/02/14 11:40:02;;;;;;;32.77;21.27;;;20.00;91.40;;;;;;5050343;28;20215;-70
2024/02/14 11:42:30;;;;;;;29.70;22.40;;;20.00;91.00;;;;;;5051902;28;20651;-70
2024/02/14 11:44:58;;;;;;;32.10;21.70;;;20.10;91.00;;;;;;5051503;28;20188;-69
2024/02/14 11:47:27;;;;;;;33.77;22.90;;;20.20;91.00;;;;;;5052089;28;20187;-69
2024/02/14 11:49:54;;;;;;;33.93;21.93;;;20.30;90.80;;;;;;5051047;28;20223;-70
2024/02/14 11:52:22;;;;;;;25.40;21.73;;;20.30;90.50;;;;;;5050996;28;20548;-70
2024/02/14 11:54:50;;;;;;;31.33;22.20;;;20.30;90.60;;;;;;5048675;28;20187;-68
2024/02/14 11:57:20;;;;;;;27.93;22.37;;;20.30;90.40;;;;;;5051639;28;20200;-69
2024/02/14 11:59:53;;;;;;;28.33;23.77;;;20.30;90.00;;;;;;5051455;28;20233;-69
2024/02/14 12:02:21;;;;;;;32.80;22.73;;;20.20;90.00;;;;;;5051743;28;20647;-70
2024/02/14 12:04:55;;;;;;;26.20;21.17;;;20.30;90.30;;;;;;5051967;28;20180;-69
2024/02/14 12:07:23;;;;;;;24.07;21.43;;;20.20;90.30;;;;;;5051242;28;20205;-69
2024/02/14 12:09:51;;;;;;;28.17;23.53;;;20.20;90.50;;;;;;5050936;28;20673;-69
2024/02/14 12:12:19;;;;;;;31.50;23.97;;;20.20;90.70;;;;;;5051643;28;20211;-70
2024/02/14 12:14:49;;;;;;;31.27;24.23;;;20.00;90.50;;;;;;5049406;28;20188;-69
2024/02/14 12:17:21;;;;;;;28.17;24.57;;;20.10;90.90;;;;;;5052354;28;20187;-69
2024/02/14 12:19:50;;;;;;;27.77;24.47;;;20.00;91.10;;;;;;5055480;28;20180;-69
2024/02/14 12:22:17;;;;;;;31.27;23.80;;;20.00;91.10;;;;;;5054780;28;20269;-69
2024/02/14 12:24:49;;;;;;;35.80;24.87;;;20.00;91.10;;;;;;5054793;28;20184;-69
2024/02/14 12:27:20;;;;;;;37.43;25.33;;;19.90;91.20;;;;;;5054807;28;20662;-69
2024/02/14 12:29:47;;;;;;;35.83;24.73;;;20.00;91.40;;;;;;5055173;28;20187;-69
2024/02/14 12:32:18;;;;;;;30.33;26.27;;;19.90;91.20;;;;;;5055582;28;20633;-69
2024/02/14 12:34:45;;;;;;;31.30;27.90;;;19.90;91.50;;;;;;5054827;28;20223;-70
2024/02/14 12:37:13;;;;;;;33.87;26.50;;;19.90;91.70;;;;;;5055311;28;20187;-70
2024/02/14 12:39:40;;;;;;;29.57;26.30;;;19.80;91.70;;;;;;5052499;28;20183;-69
2024/02/14 12:42:08;;;;;;;41.30;28.93;;;19.90;91.90;;;;;;5049799;28;20238;-70